Time;durP1;ratioP1;P1;durP2;ratioP2;P2;SDS_P1;SDS_P2;PMS_P1;PMS_P2;Temp;Humidity;BMP_temperature;BMP_pressure;BME280_temperature;BME280_humidity;BME280_pressure;Samples;Min_cycle;Max_cycle;Signal;HPM_P1;HPM_P2
2021/08/30 00:00:31;;;;;;;29.03;3.73;;;;;;;;;;10483909;28;20464;-79
2021/08/30 00:05:32;;;;;;;27.10;3.80;;;;;;;;;;10485019;28;20445;-79
2021/08/30 00:10:32;;;;;;;31.35;3.13;;;;;;;;;;10461886;28;20459;-79
2021/08/30 00:15:32;;;;;;;20.45;2.58;;;;;;;;;;10492409;28;20035;-78
2021/08/30 00:20:33;;;;;;;38.20;3.13;;;;;;;;;;10491284;28;20071;-79
2021/08/30 00:25:33;;;;;;;26.55;2.85;;;;;;;;;;10486218;28;20489;-79
2021/08/30 00:30:34;;;;;;;9.27;2.53;;;;;;;;;;10492908;28;20451;-79
2021/08/30 00:35:35;;;;;;;17.05;2.50;;;;;;;;;;10475517;28;20093;-79
2021/08/30 00:40:36;;;;;;;16.90;2.80;;;;;;;;;;10482127;28;20102;-79
2021/08/30 00:45:37;;;;;;;11.50;2.42;;;;;;;;;;10497196;28;20032;-79
2021/08/30 00:50:37;;;;;;;9.52;2.08;;;;;;;;;;10471868;28;20029;-79
2021/08/30 00:55:38;;;;;;;9.33;2.17;;;;;;;;;;10486402;28;20033;-78
2021/08/30 01:00:38;;;;;;;10.47;1.93;;;;;;;;;;10470807;28;20074;-79
2021/08/30 01:05:41;;;;;;;15.87;2.83;;;;;;;;;;10455675;28;20021;-79
2021/08/30 01:11:06;;;;;;;7.47;1.75;;;;;;;;;;10455056;28;20107;-79
2021/08/30 01:16:11;;;;;;;10.15;2.40;;;;;;;;;;10463903;28;20108;-79
2021/08/30 01:21:21;;;;;;;10.55;2.65;;;;;;;;;;10461312;28;20075;-78
2021/08/30 01:26:26;;;;;;;6.40;1.75;;;;;;;;;;10462713;28;20040;-79
2021/08/30 01:31:43;;;;;;;6.97;1.77;;;;;;;;;;10464064;28;20021;-79
2021/08/30 01:36:44;;;;;;;5.47;1.73;;;;;;;;;;10453284;28;20035;-79
2021/08/30 01:41:45;;;;;;;7.40;1.77;;;;;;;;;;10453165;28;20052;-79
2021/08/30 01:46:46;;;;;;;8.80;1.58;;;;;;;;;;10461641;28;20029;-79
2021/08/30 01:51:48;;;;;;;5.35;1.77;;;;;;;;;;10461975;28;20123;-80
2021/08/30 01:56:52;;;;;;;5.88;1.55;;;;;;;;;;10461068;28;20086;-80
2021/08/30 02:01:52;;;;;;;4.90;1.60;;;;;;;;;;10457908;28;20029;-79
2021/08/30 02:06:53;;;;;;;4.35;1.60;;;;;;;;;;10476678;28;20037;-79
2021/08/30 02:11:54;;;;;;;11.27;2.17;;;;;;;;;;10461938;28;20033;-78
2021/08/30 02:16:56;;;;;;;6.35;1.38;;;;;;;;;;10461543;28;20040;-78
2021/08/30 02:22:02;;;;;;;5.68;1.33;;;;;;;;;;10461033;28;20450;-78
2021/08/30 02:27:03;;;;;;;4.10;1.52;;;;;;;;;;10453114;28;20056;-79
2021/08/30 02:32:05;;;;;;;4.93;1.50;;;;;;;;;;10447848;28;20083;-79
2021/08/30 02:37:06;;;;;;;4.20;1.40;;;;;;;;;;10460200;28;20037;-79
2021/08/30 02:42:07;;;;;;;3.28;1.20;;;;;;;;;;10461186;28;20049;-79
2021/08/30 02:47:08;;;;;;;5.07;0.98;;;;;;;;;;10459639;28;20029;-79
2021/08/30 02:52:10;;;;;;;3.38;1.10;;;;;;;;;;10458984;28;20064;-79
2021/08/30 02:57:11;;;;;;;5.82;1.67;;;;;;;;;;10456278;28;20035;-79
2021/08/30 03:02:12;;;;;;;4.20;1.40;;;;;;;;;;10447337;28;20550;-78
2021/08/30 03:07:13;;;;;;;4.88;1.20;;;;;;;;;;10458229;28;20039;-79
2021/08/30 03:12:15;;;;;;;5.63;1.45;;;;;;;;;;10456817;28;20032;-79
2021/08/30 03:17:17;;;;;;;2.42;1.30;;;;;;;;;;10458149;28;20550;-80
2021/08/30 03:22:18;;;;;;;3.17;1.25;;;;;;;;;;10459539;28;20162;-80
2021/08/30 03:27:19;;;;;;;5.03;1.17;;;;;;;;;;10452733;28;20578;-80
2021/08/30 03:32:20;;;;;;;3.35;0.98;;;;;;;;;;10457205;28;20040;-81
2021/08/30 03:37:21;;;;;;;5.30;1.00;;;;;;;;;;10456398;28;20494;-81
2021/08/30 03:42:23;;;;;;;5.55;1.20;;;;;;;;;;10456725;28;20052;-81
2021/08/30 03:47:24;;;;;;;4.63;0.95;;;;;;;;;;10458626;28;20087;-80
2021/08/30 03:52:24;;;;;;;6.57;1.00;;;;;;;;;;10459007;28;20114;-80
2021/08/30 03:57:26;;;;;;;4.38;1.38;;;;;;;;;;10444744;28;20115;-80
2021/08/30 04:02:28;;;;;;;1.75;0.73;;;;;;;;;;10453207;28;20483;-80
2021/08/30 04:07:29;;;;;;;2.75;1.38;;;;;;;;;;10455673;28;20490;-80
2021/08/30 04:12:29;;;;;;;2.70;0.80;;;;;;;;;;10454510;28;20159;-81
2021/08/30 04:17:29;;;;;;;3.40;1.33;;;;;;;;;;10457340;28;20024;-80
2021/08/30 04:22:34;;;;;;;4.13;1.00;;;;;;;;;;10456404;28;20462;-80
2021/08/30 04:27:35;;;;;;;2.58;0.90;;;;;;;;;;10444810;28;20478;-81
2021/08/30 04:32:37;;;;;;;1.50;0.90;;;;;;;;;;10456888;28;20061;-80
2021/08/30 04:37:38;;;;;;;1.85;0.90;;;;;;;;;;10456674;28;20024;-81
2021/08/30 04:42:38;;;;;;;4.25;1.25;;;;;;;;;;10455323;28;20090;-80
2021/08/30 04:47:39;;;;;;;4.95;1.55;;;;;;;;;;10454852;28;20041;-80
2021/08/30 04:52:39;;;;;;;2.85;1.33;;;;;;;;;;10455745;28;20036;-80
2021/08/30 04:57:39;;;;;;;2.03;1.13;;;;;;;;;;10456156;28;20060;-80
2021/08/30 05:02:40;;;;;;;2.90;1.30;;;;;;;;;;10456510;28;20466;-81
2021/08/30 05:07:40;;;;;;;2.40;1.10;;;;;;;;;;10451688;28;20495;-81
2021/08/30 05:12:41;;;;;;;1.43;1.20;;;;;;;;;;10451792;28;20537;-78
2021/08/30 05:17:41;;;;;;;2.08;1.15;;;;;;;;;;10456680;28;21126;-78
2021/08/30 05:22:42;;;;;;;1.75;1.20;;;;;;;;;;10456119;28;20234;-78
2021/08/30 05:27:44;;;;;;;3.30;1.13;;;;;;;;;;10455618;28;20522;-78
2021/08/30 05:32:45;;;;;;;2.83;1.08;;;;;;;;;;10454730;28;20033;-80
2021/08/30 05:37:45;;;;;;;2.15;1.00;;;;;;;;;;10455727;28;20459;-79
2021/08/30 05:42:46;;;;;;;2.85;1.15;;;;;;;;;;10455149;28;20067;-79
2021/08/30 05:47:47;;;;;;;1.43;1.00;;;;;;;;;;10451784;28;20393;-79
2021/08/30 05:52:48;;;;;;;1.40;1.20;;;;;;;;;;10457219;28;20458;-80
2021/08/30 05:57:49;;;;;;;1.10;1.00;;;;;;;;;;10454223;28;20021;-79
2021/08/30 06:02:49;;;;;;;3.42;1.25;;;;;;;;;;10467977;28;20029;-79
2021/08/30 06:07:49;;;;;;;1.77;1.10;;;;;;;;;;10476296;28;20036;-79
2021/08/30 06:12:51;;;;;;;3.00;1.03;;;;;;;;;;10466985;28;20540;-79
2021/08/30 06:17:52;;;;;;;2.35;1.45;;;;;;;;;;10461727;28;20495;-80
2021/08/30 06:22:52;;;;;;;3.58;1.42;;;;;;;;;;10461150;28;20029;-80
2021/08/30 06:27:52;;;;;;;2.87;1.47;;;;;;;;;;10461195;28;20060;-80
2021/08/30 06:32:53;;;;;;;4.60;1.17;;;;;;;;;;10460988;28;20975;-80
2021/08/30 06:37:53;;;;;;;3.60;1.10;;;;;;;;;;10460515;28;20029;-80
2021/08/30 06:42:54;;;;;;;2.22;1.38;;;;;;;;;;10460870;28;20044;-80
2021/08/30 06:47:55;;;;;;;2.70;1.20;;;;;;;;;;10460261;28;20405;-81
2021/08/30 06:52:55;;;;;;;11.00;1.23;;;;;;;;;;10460428;28;20025;-82
2021/08/30 06:57:55;;;;;;;7.82;1.02;;;;;;;;;;10459964;28;20485;-81
2021/08/30 07:02:56;;;;;;;1.10;1.07;;;;;;;;;;10458572;28;20079;-81
2021/08/30 07:07:56;;;;;;;2.47;1.40;;;;;;;;;;10460225;28;20489;-80
2021/08/30 07:12:57;;;;;;;1.35;1.20;;;;;;;;;;10458544;28;20082;-80
2021/08/30 07:17:57;;;;;;;2.30;1.10;;;;;;;;;;10459139;28;20489;-80
2021/08/30 07:22:58;;;;;;;5.60;1.80;;;;;;;;;;10459035;28;20025;-81
2021/08/30 07:27:58;;;;;;;4.97;1.60;;;;;;;;;;10459172;28;20025;-81
2021/08/30 07:32:58;;;;;;;7.45;1.60;;;;;;;;;;10458756;28;20033;-81
2021/08/30 07:37:59;;;;;;;4.33;1.50;;;;;;;;;;10457993;28;20033;-81
2021/08/30 07:42:59;;;;;;;9.63;1.67;;;;;;;;;;10522915;22;20082;-81
2021/08/30 07:48:00;;;;;;;2.23;1.30;;;;;;;;;;10541176;28;20089;-81
2021/08/30 07:53:00;;;;;;;5.77;1.70;;;;;;;;;;10541501;28;20452;-81
2021/08/30 07:58:01;;;;;;;6.88;1.92;;;;;;;;;;10541329;28;20050;-81
2021/08/30 08:03:01;;;;;;;2.53;1.50;;;;;;;;;;10540380;28;20032;-81
2021/08/30 08:08:04;;;;;;;6.13;1.60;;;;;;;;;;10541182;28;20044;-80
2021/08/30 08:13:05;;;;;;;5.68;1.98;;;;;;;;;;10540652;28;20949;-81
2021/08/30 08:18:05;;;;;;;6.18;1.75;;;;;;;;;;10539594;28;20028;-81
2021/08/30 08:23:06;;;;;;;10.68;1.30;;;;;;;;;;10539255;28;20078;-81
2021/08/30 08:28:06;;;;;;;7.82;1.75;;;;;;;;;;10540093;28;20031;-80
2021/08/30 08:33:07;;;;;;;13.45;2.00;;;;;;;;;;10540416;28;20028;-80
2021/08/30 08:38:10;;;;;;;7.00;1.67;;;;;;;;;;10539935;28;20024;-81
2021/08/30 08:43:15;;;;;;;10.48;1.80;;;;;;;;;;10539582;28;20071;-81
2021/08/30 08:48:17;;;;;;;8.50;1.70;;;;;;;;;;10539750;28;20034;-81
2021/08/30 08:53:17;;;;;;;6.60;1.23;;;;;;;;;;10539721;28;20476;-81
2021/08/30 08:58:20;;;;;;;2.83;1.33;;;;;;;;;;10539417;28;20115;-81
2021/08/30 09:03:20;;;;;;;7.13;1.88;;;;;;;;;;10539210;28;20845;-81
2021/08/30 09:08:42;;;;;;;2.20;1.30;;;;;;;;;;10539233;28;20062;-81
2021/08/30 09:13:56;;;;;;;4.03;1.27;;;;;;;;;;10538318;28;20071;-80
2021/08/30 09:19:04;;;;;;;4.97;1.40;;;;;;;;;;10538697;28;20077;-80
2021/08/30 09:24:10;;;;;;;4.63;1.50;;;;;;;;;;10539032;28;20028;-80
2021/08/30 09:29:25;;;;;;;7.38;1.17;;;;;;;;;;10538955;28;20355;-80
2021/08/30 09:34:29;;;;;;;5.10;1.40;;;;;;;;;;10542193;28;20404;-79
2021/08/30 09:39:32;;;;;;;4.68;1.70;;;;;;;;;;10546805;28;20027;-80
2021/08/30 09:44:32;;;;;;;1.30;0.95;;;;;;;;;;10547077;28;20044;-80
2021/08/30 09:49:33;;;;;;;5.33;1.20;;;;;;;;;;10546040;28;20370;-80
2021/08/30 09:54:34;;;;;;;4.27;1.20;;;;;;;;;;10546364;28;20055;-80
2021/08/30 09:59:37;;;;;;;1.58;1.10;;;;;;;;;;10546012;28;20028;-80
2021/08/30 10:04:39;;;;;;;1.90;1.17;;;;;;;;;;10546097;28;20032;-79
2021/08/30 10:09:43;;;;;;;3.50;1.27;;;;;;;;;;10545769;28;20070;-79
2021/08/30 10:14:44;;;;;;;4.38;1.00;;;;;;;;;;10527131;28;20118;-80
2021/08/30 10:19:55;;;;;;;1.77;1.17;;;;;;;;;;10544807;28;20115;-80
2021/08/30 10:24:55;;;;;;;8.93;1.02;;;;;;;;;;10544251;28;20024;-80
2021/08/30 10:30:06;;;;;;;4.97;1.42;;;;;;;;;;10544735;28;20112;-81
2021/08/30 10:35:16;;;;;;;15.05;1.40;;;;;;;;;;10543944;28;20136;-81
2021/08/30 10:40:18;;;;;;;3.55;1.15;;;;;;;;;;10544227;28;20040;-81
2021/08/30 10:45:29;;;;;;;5.85;1.23;;;;;;;;;;10543073;28;20043;-81
2021/08/30 10:50:31;;;;;;;3.08;0.80;;;;;;;;;;10544208;28;20454;-81
2021/08/30 10:55:37;;;;;;;1.05;0.80;;;;;;;;;;10543716;28;20024;-80
2021/08/30 11:00:37;;;;;;;1.77;1.30;;;;;;;;;;10543658;28;20407;-81
2021/08/30 11:05:40;;;;;;;1.83;1.00;;;;;;;;;;10543464;28;20024;-81
2021/08/30 11:10:41;;;;;;;0.95;0.85;;;;;;;;;;10543161;28;20028;-81
2021/08/30 11:15:41;;;;;;;1.57;1.07;;;;;;;;;;10524891;28;20115;-81
2021/08/30 11:20:47;;;;;;;2.97;1.10;;;;;;;;;;10543257;28;20036;-80
2021/08/30 11:25:48;;;;;;;1.38;1.05;;;;;;;;;;10542015;28;20027;-81
2021/08/30 11:30:48;;;;;;;1.03;0.70;;;;;;;;;;10542404;28;20036;-79
2021/08/30 11:35:49;;;;;;;2.23;0.80;;;;;;;;;;10523494;28;20044;-80
2021/08/30 11:40:49;;;;;;;1.30;0.88;;;;;;;;;;10542071;28;20058;-80
2021/08/30 11:45:50;;;;;;;0.83;0.60;;;;;;;;;;10522601;28;20044;-80
2021/08/30 11:50:50;;;;;;;0.88;0.70;;;;;;;;;;10540976;28;20115;-80
2021/08/30 11:55:51;;;;;;;1.50;0.70;;;;;;;;;;10539896;28;20462;-80
2021/08/30 12:01:00;;;;;;;1.33;0.80;;;;;;;;;;10540876;28;20056;-80
2021/08/30 12:06:01;;;;;;;2.25;0.90;;;;;;;;;;10531168;28;20036;-80
2021/08/30 12:11:05;;;;;;;4.60;0.98;;;;;;;;;;10541001;28;20036;-80
2021/08/30 12:16:06;;;;;;;1.02;0.82;;;;;;;;;;10540529;28;20028;-80
2021/08/30 12:21:06;;;;;;;3.60;0.90;;;;;;;;;;10540454;28;20373;-80
2021/08/30 12:26:08;;;;;;;1.60;0.90;;;;;;;;;;10540038;28;20028;-79
2021/08/30 12:31:09;;;;;;;0.70;0.63;;;;;;;;;;10539054;28;20389;-80
2021/08/30 12:36:09;;;;;;;0.90;0.90;;;;;;;;;;10536590;28;20028;-83
2021/08/30 12:41:10;;;;;;;0.73;0.67;;;;;;;;;;10537465;28;20122;-84
2021/08/30 12:46:10;;;;;;;2.15;0.90;;;;;;;;;;10537514;28;20024;-80
2021/08/30 12:51:12;;;;;;;6.20;0.70;;;;;;;;;;10535887;28;20046;-80
2021/08/30 12:56:13;;;;;;;0.63;0.55;;;;;;;;;;10537548;28;20032;-79
2021/08/30 13:01:13;;;;;;;0.83;0.63;;;;;;;;;;10539192;28;20028;-79
2021/08/30 13:06:14;;;;;;;1.85;0.80;;;;;;;;;;10534288;28;20028;-80
2021/08/30 13:11:14;;;;;;;0.90;0.80;;;;;;;;;;10541021;28;20477;-80
2021/08/30 13:16:15;;;;;;;1.70;0.97;;;;;;;;;;10546809;28;20433;-79
2021/08/30 13:21:15;;;;;;;2.22;0.90;;;;;;;;;;10533436;28;20110;-79
2021/08/30 13:26:15;;;;;;;0.60;0.60;;;;;;;;;;10544572;28;20024;-80
2021/08/30 13:31:16;;;;;;;1.23;0.80;;;;;;;;;;10522237;28;20020;-79
2021/08/30 13:36:17;;;;;;;0.70;0.70;;;;;;;;;;10528234;28;20026;-79
2021/08/30 13:41:17;;;;;;;1.27;0.70;;;;;;;;;;10546280;28;20032;-79
2021/08/30 13:46:17;;;;;;;1.33;0.80;;;;;;;;;;10528443;28;20046;-79
2021/08/30 13:51:18;;;;;;;0.93;0.87;;;;;;;;;;10546382;28;20040;-79
2021/08/30 13:56:18;;;;;;;2.40;0.77;;;;;;;;;;10546419;28;20040;-80
2021/08/30 14:01:19;;;;;;;0.90;0.70;;;;;;;;;;10545790;28;20030;-79
2021/08/30 14:06:19;;;;;;;0.80;0.80;;;;;;;;;;10545846;28;20509;-79
2021/08/30 14:11:20;;;;;;;0.90;0.70;;;;;;;;;;10545627;28;20031;-79
2021/08/30 14:16:20;;;;;;;1.38;1.02;;;;;;;;;;10545665;28;20433;-79
2021/08/30 14:21:21;;;;;;;0.95;0.70;;;;;;;;;;10544375;28;20111;-79
2021/08/30 14:26:21;;;;;;;2.10;1.10;;;;;;;;;;10540239;28;20044;-79
2021/08/30 14:31:22;;;;;;;1.17;0.93;;;;;;;;;;10543854;28;20036;-76
2021/08/30 14:36:24;;;;;;;2.38;1.25;;;;;;;;;;10525726;28;20048;-76
2021/08/30 14:41:25;;;;;;;2.28;0.95;;;;;;;;;;10540783;28;20043;-77
2021/08/30 14:46:25;;;;;;;3.22;1.15;;;;;;;;;;10524382;28;20115;-76
2021/08/30 14:51:27;;;;;;;2.00;1.00;;;;;;;;;;10538858;28;20110;-76
2021/08/30 14:56:27;;;;;;;1.88;1.10;;;;;;;;;;10542830;28;20047;-76
2021/08/30 15:01:28;;;;;;;4.03;1.20;;;;;;;;;;10542243;28;20050;-76
2021/08/30 15:06:30;;;;;;;4.38;1.10;;;;;;;;;;10523848;28;20458;-77
2021/08/30 15:11:30;;;;;;;2.35;1.10;;;;;;;;;;10542122;28;20051;-76
2021/08/30 15:16:32;;;;;;;2.30;0.80;;;;;;;;;;10541526;28;20048;-76
2021/08/30 15:21:34;;;;;;;2.58;1.00;;;;;;;;;;10541422;28;20369;-76
2021/08/30 15:26:34;;;;;;;4.30;1.30;;;;;;;;;;10542824;28;20154;-76
2021/08/30 15:31:36;;;;;;;2.30;1.17;;;;;;;;;;10540659;28;20130;-77
2021/08/30 15:36:37;;;;;;;2.53;1.35;;;;;;;;;;10541656;28;20441;-76
2021/08/30 15:41:38;;;;;;;6.15;1.15;;;;;;;;;;10538138;28;20044;-76
2021/08/30 15:46:38;;;;;;;5.55;1.10;;;;;;;;;;10541514;28;20032;-76
2021/08/30 15:51:39;;;;;;;5.32;1.10;;;;;;;;;;10541395;28;20024;-76
2021/08/30 15:56:39;;;;;;;7.03;1.30;;;;;;;;;;10541004;28;20468;-76
2021/08/30 16:01:40;;;;;;;6.90;1.20;;;;;;;;;;10540424;28;20077;-76
2021/08/30 16:06:41;;;;;;;5.20;1.43;;;;;;;;;;10539747;28;20051;-76
2021/08/30 16:11:41;;;;;;;4.00;1.23;;;;;;;;;;10540865;28;20544;-76
2021/08/30 16:16:42;;;;;;;3.43;1.10;;;;;;;;;;10541080;28;20447;-76
2021/08/30 16:21:42;;;;;;;4.32;1.38;;;;;;;;;;10540574;28;20043;-76
2021/08/30 16:26:43;;;;;;;2.75;1.00;;;;;;;;;;10540411;28;20056;-76
2021/08/30 16:31:43;;;;;;;2.83;1.10;;;;;;;;;;10539997;28;20089;-76
2021/08/30 16:36:44;;;;;;;1.17;1.03;;;;;;;;;;10536376;28;20485;-76
2021/08/30 16:41:44;;;;;;;4.23;1.30;;;;;;;;;;10533872;28;20600;-76
2021/08/30 16:46:44;;;;;;;7.47;1.30;;;;;;;;;;10517538;28;20473;-78
2021/08/30 16:51:45;;;;;;;2.38;1.10;;;;;;;;;;10538057;28;20457;-78
2021/08/30 16:56:46;;;;;;;8.13;1.10;;;;;;;;;;10539163;28;20226;-78
2021/08/30 17:01:47;;;;;;;2.38;1.33;;;;;;;;;;10539160;28;20115;-78
2021/08/30 17:06:47;;;;;;;4.20;1.20;;;;;;;;;;10539328;28;20032;-78
2021/08/30 17:11:48;;;;;;;3.13;1.00;;;;;;;;;;10539510;28;20481;-78
2021/08/30 17:16:48;;;;;;;3.80;1.10;;;;;;;;;;10539443;28;20531;-78
2021/08/30 17:21:48;;;;;;;4.77;1.30;;;;;;;;;;10538549;28;20461;-78
2021/08/30 17:26:49;;;;;;;3.67;1.00;;;;;;;;;;10539315;28;20818;-78
2021/08/30 17:31:49;;;;;;;5.33;1.00;;;;;;;;;;10538603;28;20162;-84
2021/08/30 17:36:50;;;;;;;1.77;0.90;;;;;;;;;;10536456;28;20032;-83
2021/08/30 17:41:50;;;;;;;2.33;1.13;;;;;;;;;;10538468;28;20044;-83
2021/08/30 17:46:51;;;;;;;3.70;1.30;;;;;;;;;;10539290;28;20040;-83
2021/08/30 17:51:51;;;;;;;3.72;0.93;;;;;;;;;;10563415;28;20540;-81
2021/08/30 17:56:52;;;;;;;1.48;0.98;;;;;;;;;;10556366;28;20508;-81
2021/08/30 18:01:52;;;;;;;4.15;1.10;;;;;;;;;;10542450;28;20457;-83
2021/08/30 18:06:53;;;;;;;5.57;1.20;;;;;;;;;;10525033;28;20450;-88
2021/08/30 18:11:53;;;;;;;2.40;1.08;;;;;;;;;;10507591;28;20055;-81
2021/08/30 18:16:54;;;;;;;3.28;1.27;;;;;;;;;;10539743;28;20032;-85
2021/08/30 18:21:54;;;;;;;2.20;1.30;;;;;;;;;;10538304;28;20059;-83
2021/08/30 18:26:56;;;;;;;6.37;1.70;;;;;;;;;;10534187;28;20081;-82
2021/08/30 18:31:56;;;;;;;2.70;1.30;;;;;;;;;;10544418;28;20036;-82
2021/08/30 18:36:57;;;;;;;3.93;1.50;;;;;;;;;;10543743;28;20059;-83
2021/08/30 18:41:57;;;;;;;3.17;1.73;;;;;;;;;;10516354;28;20477;-83
2021/08/30 18:46:57;;;;;;;3.97;1.70;;;;;;;;;;10527788;28;20032;-83
2021/08/30 18:51:58;;;;;;;6.47;1.60;;;;;;;;;;10525446;28;20462;-83
2021/08/30 18:56:59;;;;;;;2.97;1.63;;;;;;;;;;10543712;28;20441;-83
2021/08/30 19:01:59;;;;;;;2.20;1.25;;;;;;;;;;10542904;28;20476;-82
2021/08/30 19:07:00;;;;;;;4.47;1.77;;;;;;;;;;10542923;28;20428;-82
2021/08/30 19:12:01;;;;;;;3.65;1.52;;;;;;;;;;10539029;28;20445;-82
2021/08/30 19:17:02;;;;;;;6.20;1.63;;;;;;;;;;10517895;28;20041;-82
2021/08/30 19:22:03;;;;;;;5.75;1.30;;;;;;;;;;10520298;28;20020;-83
2021/08/30 19:27:03;;;;;;;4.75;1.40;;;;;;;;;;10542546;28;20094;-83
2021/08/30 19:32:04;;;;;;;2.38;1.40;;;;;;;;;;10542468;28;20028;-83
2021/08/30 19:37:05;;;;;;;1.73;1.30;;;;;;;;;;10541259;28;20099;-84
2021/08/30 19:42:05;;;;;;;2.40;1.60;;;;;;;;;;10578107;22;20066;-86
2021/08/30 19:47:06;;;;;;;1.40;1.30;;;;;;;;;;10538146;28;20972;-85
2021/08/30 19:52:06;;;;;;;2.20;1.33;;;;;;;;;;10535469;28;20085;-86
2021/08/30 19:57:08;;;;;;;6.32;1.75;;;;;;;;;;10529041;28;20123;-82
2021/08/30 20:02:09;;;;;;;2.67;1.58;;;;;;;;;;10537933;28;20078;-84
2021/08/30 20:07:09;;;;;;;11.48;1.98;;;;;;;;;;10537890;28;20028;-83
2021/08/30 20:12:10;;;;;;;5.18;1.40;;;;;;;;;;10536713;28;20051;-84
2021/08/30 20:17:10;;;;;;;6.93;1.80;;;;;;;;;;10526092;28;20020;-87
2021/08/30 20:22:11;;;;;;;6.38;1.73;;;;;;;;;;10521636;28;20469;-85
2021/08/30 20:27:11;;;;;;;2.63;2.00;;;;;;;;;;10529610;28;20069;-86
2021/08/30 20:32:12;;;;;;;3.00;1.70;;;;;;;;;;10537886;28;20051;-85
2021/08/30 20:37:14;;;;;;;10.93;1.88;;;;;;;;;;10535488;28;20456;-84
2021/08/30 20:42:14;;;;;;;3.67;1.40;;;;;;;;;;10529855;28;20047;-83
2021/08/30 20:47:16;;;;;;;1.70;1.20;;;;;;;;;;10522820;28;20043;-84
2021/08/30 20:52:17;;;;;;;3.25;1.30;;;;;;;;;;10528045;28;20036;-83
2021/08/30 20:57:17;;;;;;;1.33;1.02;;;;;;;;;;10535621;28;20470;-83
2021/08/30 21:02:17;;;;;;;4.25;1.50;;;;;;;;;;10534318;28;20031;-79
2021/08/30 21:07:18;;;;;;;1.13;1.03;;;;;;;;;;10527490;28;20115;-79
2021/08/30 21:12:18;;;;;;;2.90;1.10;;;;;;;;;;10539194;28;20079;-79
2021/08/30 21:17:19;;;;;;;2.17;1.10;;;;;;;;;;10506534;28;20055;-79
2021/08/30 21:22:19;;;;;;;3.53;1.15;;;;;;;;;;10522137;28;20343;-78
2021/08/30 21:27:20;;;;;;;1.45;0.95;;;;;;;;;;10527615;28;20039;-77
2021/08/30 21:32:20;;;;;;;19.53;1.20;;;;;;;;;;10544091;28;20036;-79
2021/08/30 21:37:20;;;;;;;2.95;1.25;;;;;;;;;;10542918;28;20024;-80
2021/08/30 21:42:21;;;;;;;1.70;1.00;;;;;;;;;;10537242;28;20058;-84
2021/08/30 21:47:21;;;;;;;12.33;1.50;;;;;;;;;;10545425;28;20111;-83
2021/08/30 21:52:22;;;;;;;4.33;0.90;;;;;;;;;;10546466;28;20069;-84
2021/08/30 21:57:22;;;;;;;2.25;1.13;;;;;;;;;;10545866;28;20068;-84
2021/08/30 22:02:22;;;;;;;5.00;1.10;;;;;;;;;;10545769;28;20028;-83
2021/08/30 22:07:23;;;;;;;13.13;1.20;;;;;;;;;;10545616;28;20103;-83
2021/08/30 22:12:23;;;;;;;2.87;0.83;;;;;;;;;;10545625;28;20031;-85
2021/08/30 22:17:24;;;;;;;8.30;1.30;;;;;;;;;;10530816;28;20106;-84
2021/08/30 22:22:24;;;;;;;13.00;1.45;;;;;;;;;;10526751;28;20055;-83
2021/08/30 22:27:25;;;;;;;4.07;1.30;;;;;;;;;;10545489;28;20024;-83
2021/08/30 22:32:25;;;;;;;1.60;1.00;;;;;;;;;;10544186;28;20425;-83
2021/08/30 22:37:25;;;;;;;2.35;1.00;;;;;;;;;;10536632;28;20382;-84
2021/08/30 22:42:26;;;;;;;6.17;1.40;;;;;;;;;;10539886;28;20119;-82
2021/08/30 22:47:26;;;;;;;5.85;0.90;;;;;;;;;;10544073;28;20043;-84
2021/08/30 22:52:27;;;;;;;6.53;1.27;;;;;;;;;;10543656;28;20020;-83
2021/08/30 22:57:27;;;;;;;6.22;1.20;;;;;;;;;;10543555;28;21045;-83
2021/08/30 23:02:28;;;;;;;3.28;1.20;;;;;;;;;;10542567;28;20043;-84
2021/08/30 23:07:28;;;;;;;6.60;0.97;;;;;;;;;;10542216;28;20028;-84
2021/08/30 23:12:29;;;;;;;2.78;0.90;;;;;;;;;;10542430;28;20051;-83
2021/08/30 23:17:29;;;;;;;2.90;1.00;;;;;;;;;;10528472;28;20020;-83
2021/08/30 23:22:30;;;;;;;3.00;1.13;;;;;;;;;;10541933;28;20457;-83
2021/08/30 23:27:30;;;;;;;6.88;1.00;;;;;;;;;;10542700;28;20047;-83
2021/08/30 23:32:31;;;;;;;0.90;0.70;;;;;;;;;;10542515;28;20039;-83
2021/08/30 23:37:31;;;;;;;2.03;1.10;;;;;;;;;;10542060;28;20056;-83
2021/08/30 23:42:32;;;;;;;2.00;0.93;;;;;;;;;;10540954;28;20966;-83
2021/08/30 23:47:32;;;;;;;1.98;0.85;;;;;;;;;;10541602;28;20028;-84
2021/08/30 23:52:33;;;;;;;2.43;0.87;;;;;;;;;;10541641;28;20466;-83
2021/08/30 23:57:33;;;;;;;0.73;0.60;;;;;;;;;;10540883;28;20034;-83
